AVA8577 SKVP-SKBO
Flight info
| Callsign | AVA8577 |
|---|---|
| Flight time | 0h 58m |
| Altitude | 35000 |
| Route | ASAXO2A UGOSA DCT LOKOV DCT EJA DCT ILSEV ILSEV5E |
| Aircraft | A320/M-SDE3FGHIRWY/LB1 |
Departure
| Time | 2026-05-03 20:54 |
|---|---|
| Airport | Alfonso López Pumarejo Airport (SKVP) |
Arrival
| Time | 2026-05-03 21:52 |
|---|---|
| Airport | El Dorado International Airport (SKBO) |
| Time | Latitude | Longitude | Altitude | Speed | Heading |
|---|---|---|---|---|---|
| 2026-05-03 20:34 | 10.43324 | -73.24843 | 490 ft | 0 kts | 102° |
| 2026-05-03 20:45 | 10.43325 | -73.24850 | 482 ft | 4 kts | 98° |
| 2026-05-03 20:45 | 10.43322 | -73.24873 | 483 ft | 4 kts | 40° |
| 2026-05-03 20:45 | 10.43307 | -73.24880 | 485 ft | 0 kts | 8° |
| 2026-05-03 20:49 | 10.43315 | -73.24879 | 490 ft | 2 kts | 9° |
| 2026-05-03 20:49 | 10.43330 | -73.24876 | 490 ft | 3 kts | 10° |
| 2026-05-03 20:49 | 10.43369 | -73.24898 | 494 ft | 7 kts | 291° |
| 2026-05-03 20:50 | 10.43376 | -73.24936 | 487 ft | 5 kts | 271° |
| 2026-05-03 20:50 | 10.43314 | -73.24974 | 489 ft | 15 kts | 188° |
| 2026-05-03 20:50 | 10.43204 | -73.24990 | 486 ft | 17 kts | 189° |
| 2026-05-03 20:50 | 10.43084 | -73.25012 | 490 ft | 18 kts | 189° |
| 2026-05-03 20:51 | 10.42951 | -73.25035 | 490 ft | 20 kts | 190° |
| 2026-05-03 20:51 | 10.42807 | -73.25060 | 484 ft | 22 kts | 190° |
| 2026-05-03 20:51 | 10.42657 | -73.25086 | 486 ft | 19 kts | 188° |
| 2026-05-03 20:51 | 10.42558 | -73.25080 | 487 ft | 15 kts | 169° |
| 2026-05-03 20:52 | 10.42537 | -73.25116 | 489 ft | 4 kts | 335° |
| 2026-05-03 20:52 | 10.42566 | -73.25107 | 489 ft | 6 kts | 24° |
| 2026-05-03 20:52 | 10.42584 | -73.25101 | 489 ft | 0 kts | 14° |
| 2026-05-03 20:52 | 10.42585 | -73.25100 | 489 ft | 0 kts | 14° |
| 2026-05-03 20:53 | 10.42592 | -73.25099 | 489 ft | 7 kts | 14° |
| 2026-05-03 20:53 | 10.42902 | -73.25043 | 491 ft | 85 kts | 9° |
| 2026-05-03 20:53 | 10.43703 | -73.24902 | 494 ft | 146 kts | 10° |
| 2026-05-03 20:53 | 10.44781 | -73.24690 | 876 ft | 161 kts | 13° |
| 2026-05-03 20:54 | 10.45890 | -73.24469 | 1480 ft | 163 kts | 11° |
| 2026-05-03 20:54 | 10.47991 | -73.23728 | 2391 ft | 170 kts | 58° |
| 2026-05-03 20:54 | 10.48240 | -73.22574 | 2816 ft | 170 kts | 105° |
| 2026-05-03 20:55 | 10.47599 | -73.21618 | 3337 ft | 168 kts | 141° |
| 2026-05-03 20:55 | 10.46677 | -73.20879 | 3844 ft | 170 kts | 133° |
| 2026-05-03 20:55 | 10.46085 | -73.19847 | 4322 ft | 172 kts | 103° |
| 2026-05-03 20:55 | 10.45821 | -73.18663 | 4827 ft | 172 kts | 102° |
| 2026-05-03 20:56 | 10.45555 | -73.17473 | 5317 ft | 173 kts | 102° |
| 2026-05-03 20:56 | 10.45284 | -73.16275 | 5810 ft | 175 kts | 103° |
| 2026-05-03 20:56 | 10.44723 | -73.15194 | 6254 ft | 178 kts | 139° |
| 2026-05-03 20:56 | 10.43557 | -73.14760 | 6575 ft | 192 kts | 181° |
| 2026-05-03 20:57 | 10.42167 | -73.14959 | 6725 ft | 212 kts | 188° |
| 2026-05-03 20:57 | 10.40634 | -73.15237 | 6859 ft | 235 kts | 188° |
| 2026-05-03 20:57 | 10.38962 | -73.15546 | 7088 ft | 254 kts | 189° |
| 2026-05-03 20:57 | 10.37172 | -73.15876 | 7490 ft | 269 kts | 189° |
| 2026-05-03 20:58 | 10.35285 | -73.16219 | 7861 ft | 287 kts | 189° |
| 2026-05-03 20:58 | 10.33294 | -73.16579 | 8503 ft | 293 kts | 189° |
| 2026-05-03 20:58 | 10.31269 | -73.16950 | 9213 ft | 297 kts | 190° |
| 2026-05-03 20:58 | 10.29230 | -73.17386 | 9929 ft | 301 kts | 191° |
| 2026-05-03 20:59 | 10.27151 | -73.17870 | 10392 ft | 315 kts | 192° |
| 2026-05-03 20:59 | 10.24941 | -73.18397 | 10540 ft | 338 kts | 192° |
| 2026-05-03 20:59 | 10.22577 | -73.18964 | 10707 ft | 359 kts | 192° |
| 2026-05-03 20:59 | 10.20110 | -73.19548 | 11212 ft | 367 kts | 192° |
| 2026-05-03 21:00 | 10.17604 | -73.20135 | 11829 ft | 371 kts | 192° |
| 2026-05-03 21:00 | 10.15933 | -73.20523 | 12258 ft | 373 kts | 192° |
| 2026-05-03 21:00 | 10.12567 | -73.21301 | 13104 ft | 376 kts | 191° |
| 2026-05-03 21:00 | 10.09995 | -73.21893 | 13736 ft | 379 kts | 191° |
| 2026-05-03 21:01 | 10.07413 | -73.22486 | 14329 ft | 382 kts | 191° |
| 2026-05-03 21:01 | 10.04817 | -73.23107 | 14898 ft | 385 kts | 195° |
| 2026-05-03 21:01 | 10.02313 | -73.24123 | 15450 ft | 391 kts | 206° |
| 2026-05-03 21:01 | 10.00035 | -73.25651 | 16007 ft | 396 kts | 218° |
| 2026-05-03 21:02 | 9.98083 | -73.27644 | 16540 ft | 401 kts | 230° |
| 2026-05-03 21:02 | 9.96359 | -73.29879 | 17064 ft | 404 kts | 230° |
| 2026-05-03 21:02 | 9.94621 | -73.32135 | 17582 ft | 407 kts | 230° |
| 2026-05-03 21:02 | 9.92888 | -73.34379 | 18085 ft | 410 kts | 230° |
| 2026-05-03 21:03 | 9.91122 | -73.36660 | 18584 ft | 413 kts | 230° |
| 2026-05-03 21:03 | 9.89338 | -73.38959 | 19090 ft | 416 kts | 230° |
| 2026-05-03 21:03 | 9.87540 | -73.41274 | 19588 ft | 418 kts | 230° |
| 2026-05-03 21:03 | 9.85735 | -73.43595 | 20073 ft | 420 kts | 230° |
| 2026-05-03 21:04 | 9.83918 | -73.45935 | 20533 ft | 423 kts | 230° |
| 2026-05-03 21:04 | 9.82098 | -73.48287 | 20975 ft | 425 kts | 230° |
| 2026-05-03 21:04 | 9.80273 | -73.50649 | 21394 ft | 427 kts | 230° |
| 2026-05-03 21:04 | 9.78438 | -73.53026 | 21805 ft | 429 kts | 230° |
| 2026-05-03 21:05 | 9.76521 | -73.55349 | 22195 ft | 430 kts | 224° |
| 2026-05-03 21:05 | 9.74252 | -73.57323 | 22569 ft | 430 kts | 213° |
| 2026-05-03 21:05 | 9.71701 | -73.58830 | 22925 ft | 430 kts | 204° |
| 2026-05-03 21:05 | 9.68884 | -73.59859 | 23274 ft | 431 kts | 193° |
| 2026-05-03 21:06 | 9.65928 | -73.60431 | 23616 ft | 433 kts | 189° |
| 2026-05-03 21:06 | 9.62949 | -73.60944 | 23931 ft | 435 kts | 189° |
| 2026-05-03 21:06 | 9.59957 | -73.61471 | 24246 ft | 437 kts | 189° |
| 2026-05-03 21:06 | 9.56959 | -73.62004 | 24537 ft | 439 kts | 189° |
| 2026-05-03 21:07 | 9.53937 | -73.62542 | 24808 ft | 441 kts | 189° |
| 2026-05-03 21:07 | 9.50910 | -73.63080 | 25074 ft | 443 kts | 189° |
| 2026-05-03 21:07 | 9.47868 | -73.63617 | 25338 ft | 445 kts | 189° |
| 2026-05-03 21:07 | 9.44799 | -73.64155 | 25589 ft | 447 kts | 190° |
| 2026-05-03 21:08 | 9.41722 | -73.64695 | 25845 ft | 449 kts | 190° |
| 2026-05-03 21:08 | 9.38636 | -73.65234 | 26075 ft | 451 kts | 190° |
| 2026-05-03 21:08 | 9.35571 | -73.65767 | 26308 ft | 453 kts | 190° |
| 2026-05-03 21:08 | 9.32453 | -73.66313 | 26547 ft | 455 kts | 190° |
| 2026-05-03 21:09 | 9.29330 | -73.66864 | 26778 ft | 457 kts | 190° |
| 2026-05-03 21:09 | 9.26195 | -73.67416 | 27004 ft | 458 kts | 190° |
| 2026-05-03 21:09 | 9.23038 | -73.67970 | 27215 ft | 460 kts | 190° |
| 2026-05-03 21:09 | 9.19875 | -73.68526 | 27423 ft | 462 kts | 190° |
| 2026-05-03 21:10 | 9.16699 | -73.69086 | 27633 ft | 464 kts | 190° |
| 2026-05-03 21:10 | 9.13511 | -73.69647 | 27839 ft | 465 kts | 190° |
| 2026-05-03 21:10 | 9.10313 | -73.70208 | 28032 ft | 467 kts | 190° |
| 2026-05-03 21:10 | 9.07107 | -73.70772 | 28228 ft | 469 kts | 190° |
| 2026-05-03 21:11 | 9.03889 | -73.71339 | 28419 ft | 470 kts | 190° |
| 2026-05-03 21:11 | 9.00654 | -73.71907 | 28591 ft | 472 kts | 190° |
| 2026-05-03 21:11 | 8.97454 | -73.72468 | 28752 ft | 474 kts | 190° |
| 2026-05-03 21:11 | 8.94198 | -73.73036 | 28921 ft | 475 kts | 190° |
| 2026-05-03 21:12 | 8.90940 | -73.73604 | 29146 ft | 475 kts | 190° |
| 2026-05-03 21:12 | 8.87684 | -73.74171 | 29398 ft | 474 kts | 190° |
| 2026-05-03 21:12 | 8.84439 | -73.74738 | 29640 ft | 473 kts | 190° |
| 2026-05-03 21:12 | 8.81182 | -73.75309 | 29876 ft | 473 kts | 190° |
| 2026-05-03 21:13 | 8.77940 | -73.75876 | 30121 ft | 473 kts | 190° |
| 2026-05-03 21:13 | 8.74697 | -73.76445 | 30357 ft | 472 kts | 190° |
| 2026-05-03 21:13 | 8.71506 | -73.77006 | 30588 ft | 472 kts | 190° |
| 2026-05-03 21:13 | 8.68264 | -73.77575 | 30834 ft | 472 kts | 190° |
| 2026-05-03 21:14 | 8.65030 | -73.78143 | 31075 ft | 471 kts | 190° |
| 2026-05-03 21:14 | 8.61799 | -73.78708 | 31315 ft | 471 kts | 190° |
| 2026-05-03 21:14 | 8.58566 | -73.79271 | 31551 ft | 471 kts | 190° |
| 2026-05-03 21:14 | 8.55329 | -73.79836 | 31793 ft | 470 kts | 190° |
| 2026-05-03 21:15 | 8.52103 | -73.80403 | 32020 ft | 470 kts | 190° |
| 2026-05-03 21:15 | 8.48850 | -73.80822 | 32244 ft | 470 kts | 185° |
| 2026-05-03 21:15 | 8.45633 | -73.81109 | 32476 ft | 470 kts | 185° |
| 2026-05-03 21:15 | 8.42365 | -73.81360 | 32712 ft | 470 kts | 184° |
| 2026-05-03 21:16 | 8.39099 | -73.81588 | 32950 ft | 470 kts | 184° |
| 2026-05-03 21:16 | 8.35840 | -73.81810 | 33212 ft | 469 kts | 184° |
| 2026-05-03 21:16 | 8.32590 | -73.82036 | 33469 ft | 468 kts | 184° |
| 2026-05-03 21:16 | 8.29344 | -73.82270 | 33714 ft | 467 kts | 184° |
| 2026-05-03 21:17 | 8.26094 | -73.82513 | 33949 ft | 467 kts | 184° |
| 2026-05-03 21:17 | 8.23950 | -73.82678 | 34101 ft | 467 kts | 184° |
| 2026-05-03 21:17 | 8.19654 | -73.83012 | 34398 ft | 467 kts | 184° |
| 2026-05-03 21:17 | 8.16409 | -73.83264 | 34617 ft | 467 kts | 184° |
| 2026-05-03 21:18 | 8.13168 | -73.83513 | 34821 ft | 467 kts | 184° |
| 2026-05-03 21:18 | 8.09916 | -73.83760 | 34892 ft | 468 kts | 184° |
| 2026-05-03 21:18 | 8.03398 | -73.84248 | 34894 ft | 469 kts | 184° |
| 2026-05-03 21:19 | 7.96934 | -73.84742 | 34897 ft | 469 kts | 184° |
| 2026-05-03 21:19 | 7.90422 | -73.85244 | 34888 ft | 469 kts | 184° |
| 2026-05-03 21:20 | 7.83911 | -73.85733 | 34897 ft | 469 kts | 184° |
| 2026-05-03 21:20 | 7.77397 | -73.86220 | 34900 ft | 469 kts | 184° |
| 2026-05-03 21:21 | 7.70878 | -73.86714 | 34900 ft | 469 kts | 184° |
| 2026-05-03 21:21 | 7.64359 | -73.87214 | 34901 ft | 470 kts | 184° |
| 2026-05-03 21:22 | 7.57841 | -73.87708 | 34898 ft | 470 kts | 184° |
| 2026-05-03 21:22 | 7.51368 | -73.88199 | 34893 ft | 470 kts | 184° |
| 2026-05-03 21:23 | 7.44835 | -73.88687 | 34889 ft | 470 kts | 184° |
| 2026-05-03 21:23 | 7.38313 | -73.89177 | 34886 ft | 470 kts | 184° |
| 2026-05-03 21:24 | 7.31778 | -73.89672 | 34881 ft | 470 kts | 184° |
| 2026-05-03 21:24 | 7.25247 | -73.90174 | 34875 ft | 471 kts | 184° |
| 2026-05-03 21:25 | 7.18713 | -73.90672 | 34872 ft | 470 kts | 184° |
| 2026-05-03 21:25 | 7.12225 | -73.91163 | 34866 ft | 470 kts | 184° |
| 2026-05-03 21:26 | 7.05694 | -73.91658 | 34863 ft | 470 kts | 184° |
| 2026-05-03 21:26 | 6.99165 | -73.92150 | 34865 ft | 470 kts | 184° |
| 2026-05-03 21:27 | 6.92641 | -73.92644 | 34861 ft | 470 kts | 184° |
| 2026-05-03 21:27 | 6.86117 | -73.93138 | 34864 ft | 470 kts | 184° |
| 2026-05-03 21:28 | 6.79631 | -73.93628 | 34864 ft | 471 kts | 184° |
| 2026-05-03 21:28 | 6.73088 | -73.94114 | 34867 ft | 471 kts | 184° |
| 2026-05-03 21:29 | 6.66553 | -73.94598 | 34872 ft | 471 kts | 184° |
| 2026-05-03 21:29 | 6.60018 | -73.95097 | 34878 ft | 471 kts | 184° |
| 2026-05-03 21:30 | 6.53519 | -73.95593 | 34885 ft | 471 kts | 184° |
| 2026-05-03 21:30 | 6.46980 | -73.96084 | 34895 ft | 471 kts | 183° |
| 2026-05-03 21:31 | 6.40435 | -73.96573 | 34907 ft | 471 kts | 183° |
| 2026-05-03 21:31 | 6.33885 | -73.97071 | 34915 ft | 471 kts | 184° |
| 2026-05-03 21:32 | 6.28448 | -73.97485 | 34870 ft | 470 kts | 184° |
| 2026-05-03 21:32 | 6.21916 | -73.97970 | 34862 ft | 470 kts | 183° |
| 2026-05-03 21:33 | 6.15386 | -73.98460 | 34872 ft | 471 kts | 184° |
| 2026-05-03 21:33 | 6.08896 | -73.98955 | 34917 ft | 471 kts | 184° |
| 2026-05-03 21:34 | 6.02359 | -73.99457 | 34939 ft | 471 kts | 185° |
| 2026-05-03 21:34 | 5.95896 | -74.00580 | 34954 ft | 472 kts | 190° |
| 2026-05-03 21:35 | 5.89441 | -74.01809 | 34958 ft | 471 kts | 190° |
| 2026-05-03 21:35 | 5.82998 | -74.03032 | 34599 ft | 471 kts | 190° |
| 2026-05-03 21:36 | 5.79756 | -74.03647 | 33362 ft | 479 kts | 190° |
| 2026-05-03 21:36 | 5.76457 | -74.04273 | 32169 ft | 485 kts | 190° |
| 2026-05-03 21:36 | 5.73132 | -74.04902 | 31021 ft | 487 kts | 190° |
| 2026-05-03 21:36 | 5.69786 | -74.05535 | 29836 ft | 489 kts | 190° |
| 2026-05-03 21:37 | 5.66439 | -74.06169 | 28586 ft | 490 kts | 190° |
| 2026-05-03 21:37 | 5.63087 | -74.06804 | 27509 ft | 488 kts | 190° |
| 2026-05-03 21:37 | 5.59797 | -74.07430 | 26434 ft | 487 kts | 190° |
| 2026-05-03 21:37 | 5.56482 | -74.08060 | 25466 ft | 482 kts | 189° |
| 2026-05-03 21:38 | 5.53241 | -74.08675 | 24141 ft | 470 kts | 189° |
| 2026-05-03 21:38 | 5.50100 | -74.09268 | 23649 ft | 444 kts | 189° |
| 2026-05-03 21:38 | 5.47170 | -74.09822 | 23477 ft | 414 kts | 189° |
| 2026-05-03 21:38 | 5.44440 | -74.10472 | 23057 ft | 396 kts | 198° |
| 2026-05-03 21:39 | 5.42013 | -74.11614 | 22839 ft | 376 kts | 210° |
| 2026-05-03 21:39 | 5.39969 | -74.13117 | 22706 ft | 354 kts | 221° |
| 2026-05-03 21:39 | 5.38311 | -74.14849 | 22562 ft | 334 kts | 227° |
| 2026-05-03 21:39 | 5.36791 | -74.16564 | 22166 ft | 324 kts | 226° |
| 2026-05-03 21:40 | 5.35164 | -74.18066 | 21474 ft | 319 kts | 210° |
| 2026-05-03 21:40 | 5.33193 | -74.19173 | 20354 ft | 331 kts | 206° |
| 2026-05-03 21:40 | 5.31115 | -74.20279 | 19250 ft | 345 kts | 205° |
| 2026-05-03 21:40 | 5.28963 | -74.21416 | 18577 ft | 351 kts | 205° |
| 2026-05-03 21:41 | 5.26826 | -74.22549 | 18066 ft | 352 kts | 205° |
| 2026-05-03 21:41 | 5.24669 | -74.23698 | 17376 ft | 348 kts | 205° |
| 2026-05-03 21:41 | 5.22534 | -74.24840 | 16916 ft | 346 kts | 205° |
| 2026-05-03 21:41 | 5.20413 | -74.25977 | 16469 ft | 344 kts | 206° |
| 2026-05-03 21:42 | 5.18306 | -74.27104 | 15991 ft | 344 kts | 206° |
| 2026-05-03 21:42 | 5.16186 | -74.28237 | 15499 ft | 345 kts | 206° |
| 2026-05-03 21:42 | 5.14081 | -74.29363 | 15213 ft | 340 kts | 206° |
| 2026-05-03 21:42 | 5.11979 | -74.30490 | 14644 ft | 342 kts | 206° |
| 2026-05-03 21:43 | 5.09911 | -74.31599 | 14446 ft | 334 kts | 206° |
| 2026-05-03 21:43 | 5.07913 | -74.32669 | 14306 ft | 325 kts | 206° |
| 2026-05-03 21:43 | 5.05943 | -74.33725 | 14175 ft | 316 kts | 206° |
| 2026-05-03 21:43 | 5.04023 | -74.34754 | 13854 ft | 313 kts | 206° |
| 2026-05-03 21:44 | 5.02111 | -74.35777 | 13598 ft | 309 kts | 206° |
| 2026-05-03 21:44 | 5.00235 | -74.36780 | 13440 ft | 301 kts | 206° |
| 2026-05-03 21:44 | 4.98409 | -74.37756 | 13318 ft | 292 kts | 206° |
| 2026-05-03 21:44 | 4.96641 | -74.38702 | 13190 ft | 284 kts | 207° |
| 2026-05-03 21:45 | 4.94915 | -74.39620 | 13060 ft | 276 kts | 204° |
| 2026-05-03 21:45 | 4.93133 | -74.40209 | 12937 ft | 265 kts | 187° |
| 2026-05-03 21:45 | 4.91360 | -74.40279 | 12814 ft | 253 kts | 172° |
| 2026-05-03 21:45 | 4.89670 | -74.39893 | 12507 ft | 249 kts | 157° |
| 2026-05-03 21:46 | 4.88153 | -74.39074 | 12153 ft | 248 kts | 141° |
| 2026-05-03 21:46 | 4.86922 | -74.37887 | 11897 ft | 242 kts | 127° |
| 2026-05-03 21:46 | 4.85935 | -74.36586 | 11814 ft | 224 kts | 126° |
| 2026-05-03 21:46 | 4.85037 | -74.35396 | 11829 ft | 204 kts | 126° |
| 2026-05-03 21:47 | 4.84217 | -74.34313 | 11843 ft | 185 kts | 126° |
| 2026-05-03 21:47 | 4.83459 | -74.33314 | 11845 ft | 176 kts | 126° |
| 2026-05-03 21:47 | 4.82728 | -74.32347 | 11876 ft | 172 kts | 126° |
| 2026-05-03 21:47 | 4.82008 | -74.31396 | 11798 ft | 170 kts | 126° |
| 2026-05-03 21:48 | 4.81297 | -74.30455 | 11618 ft | 169 kts | 126° |
| 2026-05-03 21:48 | 4.80588 | -74.29518 | 11418 ft | 168 kts | 126° |
| 2026-05-03 21:48 | 4.79881 | -74.28583 | 11191 ft | 168 kts | 127° |
| 2026-05-03 21:48 | 4.79176 | -74.27652 | 10977 ft | 168 kts | 127° |
| 2026-05-03 21:49 | 4.78478 | -74.26729 | 10755 ft | 168 kts | 127° |
| 2026-05-03 21:49 | 4.77768 | -74.25792 | 10532 ft | 168 kts | 127° |
| 2026-05-03 21:49 | 4.77060 | -74.24857 | 10307 ft | 167 kts | 128° |
| 2026-05-03 21:49 | 4.76359 | -74.23930 | 10087 ft | 166 kts | 128° |
| 2026-05-03 21:50 | 4.75662 | -74.23010 | 9859 ft | 166 kts | 128° |
| 2026-05-03 21:50 | 4.74947 | -74.22066 | 9647 ft | 172 kts | 129° |
| 2026-05-03 21:50 | 4.74226 | -74.21114 | 9425 ft | 171 kts | 129° |
| 2026-05-03 21:50 | 4.73513 | -74.20172 | 9192 ft | 169 kts | 129° |
| 2026-05-03 21:51 | 4.72815 | -74.19249 | 8968 ft | 167 kts | 129° |
| 2026-05-03 21:51 | 4.72113 | -74.18323 | 8756 ft | 166 kts | 129° |
| 2026-05-03 21:51 | 4.71419 | -74.17400 | 8482 ft | 164 kts | 128° |
| 2026-05-03 21:51 | 4.70745 | -74.16497 | 8395 ft | 162 kts | 128° |
| 2026-05-03 21:52 | 4.70130 | -74.15693 | 8373 ft | 125 kts | 127° |
| 2026-05-03 21:52 | 4.69770 | -74.15214 | 8374 ft | 31 kts | 118° |
| 2026-05-03 21:52 | 4.69717 | -74.15010 | 8373 ft | 29 kts | 97° |
| 2026-05-03 21:52 | 4.69709 | -74.14934 | 8372 ft | 0 kts | 96° |
| 2026-05-03 21:53 | 4.69708 | -74.14933 | 8372 ft | 2 kts | 96° |
| 2026-05-03 21:54 | 4.69707 | -74.14900 | 8373 ft | 6 kts | 89° |
| 2026-05-03 21:54 | 4.69729 | -74.14843 | 8373 ft | 8 kts | 60° |
| 2026-05-03 21:54 | 4.69764 | -74.14810 | 8373 ft | 6 kts | 39° |
| 2026-05-03 21:54 | 4.69791 | -74.14790 | 8373 ft | 5 kts | 36° |
| 2026-05-03 21:55 | 4.69822 | -74.14767 | 8373 ft | 4 kts | 37° |
| 2026-05-03 21:55 | 4.69848 | -74.14743 | 8373 ft | 9 kts | 58° |
| 2026-05-03 21:55 | 4.69832 | -74.14689 | 8372 ft | 7 kts | 125° |
| 2026-05-03 21:55 | 4.69807 | -74.14655 | 8373 ft | 5 kts | 126° |
| 2026-05-03 21:56 | 4.69790 | -74.14631 | 8373 ft | 5 kts | 127° |
| 2026-05-03 21:56 | 4.69764 | -74.14598 | 8373 ft | 5 kts | 127° |
| 2026-05-03 21:56 | 4.69747 | -74.14575 | 8373 ft | 3 kts | 127° |
| 2026-05-03 21:56 | 4.69729 | -74.14548 | 8373 ft | 4 kts | 113° |
| 2026-05-03 21:57 | 4.69735 | -74.14528 | 8373 ft | 4 kts | 51° |
| 2026-05-03 21:57 | 4.69750 | -74.14516 | 8373 ft | 2 kts | 40° |
| 2026-05-03 21:57 | 4.69756 | -74.14511 | 8373 ft | 2 kts | 39° |
| 2026-05-03 21:57 | 4.69762 | -74.14506 | 8373 ft | 2 kts | 39° |
| 2026-05-03 21:58 | 4.69764 | -74.14505 | 8373 ft | 0 kts | 39° |